createdAt,value
2022-11-11T00:02:56.042Z,8.23
2022-11-11T00:06:17.572Z,8.09
2022-11-11T00:09:39.013Z,7.97
2022-11-11T00:13:05.275Z,7.94
2022-11-11T00:16:46.621Z,7.89
2022-11-11T00:20:31.201Z,7.72
2022-11-11T00:24:13.945Z,7.58
2022-11-11T00:27:36.492Z,7.44
2022-11-11T00:31:12.040Z,7.21
2022-11-11T00:34:33.349Z,7.05
2022-11-11T00:37:54.373Z,6.98
2022-11-11T00:41:18.415Z,6.99
2022-11-11T00:44:39.649Z,7.03
2022-11-11T00:48:19.222Z,6.94
2022-11-11T00:51:41.407Z,6.88
2022-11-11T00:55:03.046Z,6.94
2022-11-11T00:58:25.243Z,7.14
2022-11-11T01:01:46.825Z,6.96
2022-11-11T01:05:08.364Z,6.76
2022-11-11T01:08:31.127Z,6.52
2022-11-11T01:11:52.387Z,6.48
2022-11-11T01:15:13.616Z,6.33
2022-11-11T01:18:35.160Z,6.20
2022-11-11T01:21:57.053Z,6.19
2022-11-11T01:25:18.628Z,6.04
2022-11-11T01:28:40.753Z,6.00
2022-11-11T01:32:02.044Z,5.91
2022-11-11T01:35:23.569Z,5.81
2022-11-11T01:38:50.078Z,5.72
2022-11-11T01:42:11.881Z,5.72
2022-11-11T01:45:56.105Z,5.70
2022-11-11T01:49:36.491Z,5.70
2022-11-11T01:52:57.870Z,5.63
2022-11-11T01:56:19.813Z,5.66
2022-11-11T01:59:45.122Z,5.56
2022-11-11T02:03:09.749Z,5.54
2022-11-11T02:06:32.559Z,5.47
2022-11-11T02:09:56.416Z,5.46
2022-11-11T02:13:36.520Z,5.51
2022-11-11T02:16:58.769Z,5.59
2022-11-11T02:20:26.499Z,5.63
2022-11-11T02:24:06.301Z,5.68
2022-11-11T02:27:31.149Z,5.54
2022-11-11T02:30:52.707Z,5.47
2022-11-11T02:34:14.360Z,5.40
2022-11-11T02:37:35.770Z,5.28
2022-11-11T02:41:15.787Z,5.19
2022-11-11T02:44:38.177Z,5.16
2022-11-11T02:47:59.717Z,5.04
2022-11-11T02:51:20.917Z,4.96
2022-11-11T02:54:43.908Z,4.95
2022-11-11T02:58:05.185Z,4.92
2022-11-11T03:01:26.651Z,4.89
2022-11-11T03:04:47.774Z,4.93
2022-11-11T03:08:09.407Z,4.98
2022-11-11T03:11:31.351Z,4.91
2022-11-11T03:14:52.829Z,4.90
2022-11-11T03:18:14.382Z,4.85
2022-11-11T03:25:57.066Z,4.79
2022-11-11T03:29:19.471Z,4.68
2022-11-11T03:32:41.117Z,4.64
2022-11-11T03:36:02.358Z,4.62
2022-11-11T03:39:28.270Z,4.54
2022-11-11T03:42:49.973Z,4.49
2022-11-11T03:46:11.541Z,4.46
2022-11-11T03:49:32.937Z,4.45
2022-11-11T03:52:54.197Z,4.41
2022-11-11T03:56:15.665Z,4.42
2022-11-11T03:59:36.768Z,4.38
2022-11-11T04:03:29.542Z,4.31
2022-11-11T04:07:09.460Z,4.28
2022-11-11T04:10:32.283Z,4.27
2022-11-11T04:14:14.351Z,4.42
2022-11-11T04:17:35.229Z,4.53
2022-11-11T04:21:14.661Z,4.68
2022-11-11T04:24:55.202Z,4.60
2022-11-11T04:28:35.332Z,4.44
2022-11-11T04:32:16.092Z,4.32
2022-11-11T04:35:37.175Z,4.18
2022-11-11T04:39:17.098Z,4.16
2022-11-11T04:42:41.810Z,4.18
2022-11-11T04:46:03.369Z,4.24
2022-11-11T04:49:24.986Z,4.31
2022-11-11T04:52:46.504Z,4.31
2022-11-11T04:56:27.609Z,4.31
2022-11-11T04:59:48.586Z,4.31
2022-11-11T05:03:24.081Z,4.32
2022-11-11T05:07:04.699Z,4.25
2022-11-11T05:10:32.834Z,4.19
2022-11-11T05:14:14.267Z,4.31
2022-11-11T05:17:54.405Z,4.27
2022-11-11T05:21:23.741Z,4.15
2022-11-11T05:25:03.775Z,4.13
2022-11-11T05:28:24.756Z,4.11
2022-11-11T05:31:51.317Z,4.11
2022-11-11T05:35:14.211Z,4.08
2022-11-11T05:38:35.532Z,4.04
2022-11-11T05:41:56.657Z,4.04
2022-11-11T05:45:18.114Z,4.10
2022-11-11T05:48:59.545Z,4.13
2022-11-11T05:52:20.850Z,4.19
2022-11-11T05:55:42.136Z,4.26
2022-11-11T05:59:03.601Z,4.33
2022-11-11T06:02:24.743Z,4.41
2022-11-11T06:05:46.038Z,4.32
2022-11-11T06:09:07.597Z,4.38
2022-11-11T06:12:49.230Z,4.40
2022-11-11T06:16:11.101Z,4.36
2022-11-11T06:19:32.567Z,4.53
2022-11-11T06:22:57.084Z,4.64
2022-11-11T06:26:18.456Z,4.84
2022-11-11T06:29:40.074Z,4.95
2022-11-11T06:33:01.896Z,4.96
2022-11-11T06:36:23.340Z,5.10
2022-11-11T06:39:44.386Z,5.34
2022-11-11T06:43:05.462Z,5.53
2022-11-11T06:46:27.355Z,5.84
2022-11-11T06:49:48.880Z,6.15
2022-11-11T06:57:17.054Z,8.66
2022-11-11T07:00:40.044Z,10.06
2022-11-11T07:04:05.832Z,10.09
2022-11-11T07:07:28.557Z,12.39
2022-11-11T07:11:12.782Z,12.96
2022-11-11T07:14:55.050Z,13.99
2022-11-11T07:18:31.705Z,13.35
2022-11-11T07:21:53.623Z,13.90
2022-11-11T07:25:27.053Z,15.09
2022-11-11T07:28:51.490Z,15.70
2022-11-11T07:32:13.418Z,15.61
2022-11-11T07:35:34.742Z,16.38
2022-11-11T07:38:56.104Z,17.53
2022-11-11T07:42:31.065Z,17.52
2022-11-11T07:45:52.819Z,18.66
2022-11-11T07:49:14.286Z,18.87
2022-11-11T07:52:37.647Z,19.35
2022-11-11T07:55:59.288Z,20.60
2022-11-11T07:59:20.883Z,21.01
2022-11-11T08:02:48.008Z,23.21
2022-11-11T08:06:09.336Z,23.11
2022-11-11T08:09:31.820Z,24.44
2022-11-11T08:13:13.713Z,25.25
2022-11-11T08:16:35.339Z,25.65
2022-11-11T08:19:56.239Z,25.07
2022-11-11T08:23:49.748Z,25.14
2022-11-11T08:27:03.668Z,25.43
2022-11-11T08:30:26.343Z,25.50
2022-11-11T08:33:48.967Z,25.71
2022-11-11T08:37:10.580Z,25.46
2022-11-11T08:40:31.609Z,25.52
2022-11-11T08:43:55.513Z,23.83
2022-11-11T08:47:16.860Z,24.20
2022-11-11T08:50:39.519Z,23.09
2022-11-11T08:54:01.439Z,24.14
2022-11-11T08:57:29.707Z,25.06
2022-11-11T09:00:59.626Z,23.02
2022-11-11T09:08:07.037Z,24.61
2022-11-11T09:11:28.700Z,25.82
2022-11-11T09:14:50.361Z,24.83
2022-11-11T09:18:12.115Z,26.29
2022-11-11T09:21:33.228Z,26.49
2022-11-11T09:24:54.698Z,27.11
2022-11-11T09:28:15.824Z,26.23
2022-11-11T09:31:44.580Z,26.04
2022-11-11T09:35:07.250Z,26.92
2022-11-11T09:38:28.776Z,27.75
2022-11-11T09:42:17.623Z,28.60
2022-11-11T09:45:43.292Z,27.86
2022-11-11T09:49:28.577Z,27.82
2022-11-11T09:53:25.878Z,28.09
2022-11-11T09:56:47.773Z,28.66
2022-11-11T10:00:24.820Z,28.12
2022-11-11T10:03:51.919Z,27.89
2022-11-11T10:07:23.169Z,27.76
2022-11-11T10:10:46.507Z,28.24
2022-11-11T10:14:08.080Z,27.90
2022-11-11T10:17:58.381Z,28.17
2022-11-11T10:22:06.225Z,26.58
2022-11-11T10:25:26.731Z,24.95
2022-11-11T10:28:50.818Z,27.70
2022-11-11T10:32:20.726Z,28.72
2022-11-11T10:35:42.962Z,30.36
2022-11-11T10:39:06.015Z,29.16
2022-11-11T10:42:27.204Z,28.50
2022-11-11T10:46:01.210Z,28.28
2022-11-11T10:49:26.189Z,29.35
2022-11-11T10:53:11.769Z,29.20
2022-11-11T10:56:38.852Z,28.95
2022-11-11T11:00:13.203Z,29.47
2022-11-11T11:03:41.076Z,27.03
2022-11-11T11:07:06.262Z,28.07
2022-11-11T11:10:37.887Z,28.19
2022-11-11T11:14:03.488Z,27.43
2022-11-11T11:17:35.588Z,26.84
2022-11-11T11:21:03.558Z,28.91
2022-11-11T11:24:28.888Z,29.07
2022-11-11T11:27:52.278Z,29.13
2022-11-11T11:31:13.353Z,29.10
2022-11-11T11:34:46.729Z,29.49
2022-11-11T11:38:10.248Z,29.28
2022-11-11T11:41:58.080Z,29.12
2022-11-11T11:45:31.220Z,27.84
2022-11-11T11:49:16.831Z,29.46
2022-11-11T11:52:50.741Z,28.58
2022-11-11T11:56:12.199Z,29.25
2022-11-11T11:59:54.155Z,28.13
2022-11-11T12:03:37.501Z,25.55
2022-11-11T12:07:05.033Z,24.51
2022-11-11T12:10:47.551Z,21.79
2022-11-11T12:14:27.596Z,21.09
2022-11-11T12:18:25.753Z,20.81
2022-11-11T12:22:12.446Z,19.45
2022-11-11T12:25:48.341Z,19.71
2022-11-11T12:29:12.819Z,20.16
2022-11-11T12:33:01.329Z,20.84
2022-11-11T12:36:51.908Z,21.04
2022-11-11T12:40:34.628Z,18.37
2022-11-11T12:44:11.094Z,18.28
2022-11-11T12:47:51.057Z,19.00
2022-11-11T12:51:31.574Z,17.74
2022-11-11T12:55:08.525Z,17.20
2022-11-11T12:58:48.291Z,17.99
2022-11-11T13:02:43.639Z,18.80
2022-11-11T13:06:28.106Z,18.00
2022-11-11T13:09:57.558Z,18.28
2022-11-11T13:13:30.068Z,17.46
2022-11-11T13:16:53.072Z,17.90
2022-11-11T13:20:51.897Z,16.63
2022-11-11T13:24:16.187Z,16.08
2022-11-11T13:27:50.738Z,15.64
2022-11-11T13:31:15.782Z,15.70
2022-11-11T13:34:38.005Z,15.75
2022-11-11T13:37:59.222Z,15.71
2022-11-11T13:41:30.700Z,15.46
2022-11-11T13:45:00.944Z,15.51
2022-11-11T13:48:25.651Z,15.12
2022-11-11T13:51:57.678Z,14.70
2022-11-11T13:55:31.099Z,14.51
2022-11-11T13:58:54.784Z,14.50
2022-11-11T14:02:19.158Z,14.39
2022-11-11T14:05:40.474Z,14.39
2022-11-11T14:09:02.397Z,14.23
2022-11-11T14:12:36.688Z,14.22
2022-11-11T14:15:57.625Z,14.37
2022-11-11T14:19:18.627Z,14.42
2022-11-11T14:22:40.141Z,14.20
2022-11-11T14:26:11.382Z,13.89
2022-11-11T14:29:37.903Z,13.68
2022-11-11T14:33:19.387Z,13.58
2022-11-11T14:36:58.004Z,13.43
2022-11-11T14:40:30.905Z,13.34
2022-11-11T14:43:52.527Z,13.31
2022-11-11T14:47:13.803Z,13.41
2022-11-11T14:50:35.281Z,13.43
2022-11-11T14:53:57.499Z,13.45
2022-11-11T14:57:25.976Z,13.30
2022-11-11T15:01:08.744Z,13.20
2022-11-11T15:04:38.033Z,13.11
2022-11-11T15:08:14.939Z,13.01
2022-11-11T15:12:05.559Z,12.88
2022-11-11T15:15:50.380Z,12.76
2022-11-11T15:19:26.940Z,12.73
2022-11-11T15:23:15.280Z,12.62
2022-11-11T15:26:49.910Z,12.48
2022-11-11T15:30:18.798Z,12.33
2022-11-11T15:34:09.317Z,12.29
2022-11-11T15:37:31.358Z,12.12
2022-11-11T15:41:03.583Z,12.06
2022-11-11T15:44:29.658Z,11.97
2022-11-11T15:47:53.517Z,11.94
2022-11-11T15:51:17.237Z,11.89
2022-11-11T15:54:39.374Z,11.77
2022-11-11T15:58:29.455Z,11.74
2022-11-11T16:01:57.647Z,11.76
2022-11-11T16:05:33.867Z,11.68
2022-11-11T16:08:58.540Z,11.69
2022-11-11T16:12:47.389Z,11.69
2022-11-11T16:16:59.185Z,11.59
2022-11-11T16:20:29.625Z,11.54
2022-11-11T16:23:54.835Z,11.47
2022-11-11T16:27:25.632Z,11.38
2022-11-11T16:30:47.158Z,11.38
2022-11-11T16:34:28.426Z,11.30
2022-11-11T16:37:54.816Z,11.14
2022-11-11T16:41:32.143Z,11.06
2022-11-11T16:45:02.376Z,10.92
2022-11-11T16:48:34.466Z,10.94
2022-11-11T16:51:56.425Z,10.87
2022-11-11T16:55:20.727Z,10.70
2022-11-11T16:58:43.950Z,10.64
2022-11-11T17:02:16.853Z,10.58
2022-11-11T17:05:59.020Z,10.53
2022-11-11T17:09:34.442Z,10.49
2022-11-11T17:12:55.646Z,10.45
2022-11-11T17:16:16.995Z,10.45
2022-11-11T17:19:38.585Z,10.47
2022-11-11T17:23:00.159Z,10.40
2022-11-11T17:26:21.588Z,10.29
2022-11-11T17:29:42.765Z,10.20
2022-11-11T17:33:04.759Z,10.09
2022-11-11T17:36:26.105Z,10.08
2022-11-11T17:39:47.308Z,9.91
2022-11-11T17:43:09.120Z,9.84
2022-11-11T17:46:30.502Z,9.70
2022-11-11T17:49:57.037Z,9.65
2022-11-11T17:53:18.824Z,9.53
2022-11-11T17:56:40.056Z,9.41
2022-11-11T18:00:01.293Z,9.33
2022-11-11T18:03:22.783Z,9.20
2022-11-11T18:06:44.308Z,9.02
2022-11-11T18:11:25.500Z,8.94
2022-11-11T18:14:46.699Z,8.77
2022-11-11T18:18:08.413Z,8.74
2022-11-11T18:21:29.779Z,8.65
2022-11-11T18:24:50.970Z,8.61
2022-11-11T18:28:12.287Z,8.48
2022-11-11T18:31:34.253Z,8.42
2022-11-11T18:34:55.486Z,8.38
2022-11-11T18:38:16.663Z,8.35
2022-11-11T18:41:38.204Z,8.32
2022-11-11T18:44:59.797Z,8.19
2022-11-11T18:48:21.042Z,8.10
2022-11-11T18:51:42.660Z,8.10
2022-11-11T18:55:05.018Z,8.00
2022-11-11T18:58:26.492Z,7.88
2022-11-11T19:01:53.219Z,7.77
2022-11-11T19:05:16.079Z,7.68
2022-11-11T19:08:38.220Z,7.68
2022-11-11T19:11:59.877Z,7.57
2022-11-11T19:15:21.084Z,7.54
2022-11-11T19:18:42.993Z,7.47
2022-11-11T19:22:04.601Z,7.29
2022-11-11T19:25:25.784Z,7.24
2022-11-11T19:28:47.628Z,7.18
2022-11-11T19:32:09.047Z,7.17
2022-11-11T19:35:30.478Z,7.25
2022-11-11T19:38:51.745Z,7.10
2022-11-11T19:42:12.971Z,6.97
2022-11-11T19:45:36.898Z,6.81
2022-11-11T19:49:00.509Z,6.83
2022-11-11T19:52:22.327Z,6.64
2022-11-11T19:55:43.983Z,6.50
2022-11-11T19:59:06.094Z,6.50
2022-11-11T20:02:28.361Z,6.42
2022-11-11T20:05:50.348Z,6.36
2022-11-11T20:09:11.514Z,6.42
2022-11-11T20:12:33.819Z,6.40
2022-11-11T20:15:56.196Z,6.44
2022-11-11T20:19:17.744Z,6.36
2022-11-11T20:22:38.797Z,6.34
2022-11-11T20:26:07.404Z,6.29
2022-11-11T20:29:29.436Z,6.17
2022-11-11T20:32:50.581Z,6.11
2022-11-11T20:36:13.834Z,6.01
2022-11-11T20:39:35.354Z,5.94
2022-11-11T20:42:59.578Z,5.86
2022-11-11T20:46:20.948Z,5.83
2022-11-11T20:49:42.689Z,5.83
2022-11-11T20:53:04.218Z,5.79
2022-11-11T20:56:26.585Z,5.76
2022-11-11T20:59:47.607Z,5.74
2022-11-11T21:03:09.079Z,5.78
2022-11-11T21:06:31.157Z,5.75
2022-11-11T21:09:52.938Z,5.85
2022-11-11T21:13:14.427Z,5.87
2022-11-11T21:16:35.804Z,5.82
2022-11-11T21:19:58.129Z,5.65
2022-11-11T21:23:19.449Z,5.57
2022-11-11T21:26:41.053Z,5.71
2022-11-11T21:30:02.770Z,5.60
2022-11-11T21:33:24.429Z,5.54
2022-11-11T21:36:45.977Z,5.45
2022-11-11T21:40:07.880Z,5.37
2022-11-11T21:43:29.578Z,5.25
2022-11-11T21:46:51.219Z,5.18
2022-11-11T21:50:12.360Z,5.12
2022-11-11T21:53:34.800Z,5.15
2022-11-11T21:56:56.068Z,5.19
2022-11-11T22:00:18.047Z,5.13
2022-11-11T22:03:41.408Z,5.06
2022-11-11T22:07:02.738Z,5.05
2022-11-11T22:10:24.409Z,5.04
2022-11-11T22:13:45.866Z,5.13
2022-11-11T22:17:06.717Z,5.21
2022-11-11T22:20:27.949Z,5.16
2022-11-11T22:23:52.079Z,5.10
2022-11-11T22:27:13.244Z,5.04
2022-11-11T22:30:35.006Z,4.93
2022-11-11T22:34:00.195Z,4.88
2022-11-11T22:37:22.951Z,4.82
2022-11-11T22:40:44.147Z,4.77
2022-11-11T22:44:05.837Z,4.85
2022-11-11T22:47:27.243Z,4.67
2022-11-11T22:50:48.568Z,4.56
2022-11-11T22:54:18.014Z,4.62
2022-11-11T22:57:39.151Z,4.65
2022-11-11T23:01:07.727Z,4.69
2022-11-11T23:04:29.172Z,4.71
2022-11-11T23:07:50.669Z,4.60
2022-11-11T23:11:14.938Z,4.58
2022-11-11T23:14:36.534Z,4.54
2022-11-11T23:18:00.856Z,4.52
2022-11-11T23:21:24.311Z,4.46
2022-11-11T23:24:45.702Z,4.55
2022-11-11T23:28:06.835Z,4.66
2022-11-11T23:31:30.673Z,4.71
2022-11-11T23:34:52.085Z,4.70
2022-11-11T23:38:13.384Z,4.78
2022-11-11T23:41:34.857Z,4.82
2022-11-11T23:44:55.969Z,4.72
2022-11-11T23:48:17.134Z,4.73
2022-11-11T23:51:38.542Z,4.71
2022-11-11T23:55:00.213Z,4.73
2022-11-11T23:58:21.406Z,4.76
